Bridgeport, New York
Current Conditions -  °F | °C
As of 7:54 PM on Tuesday 21 Oct 2014 (Local Time) from KSYR Reporting Station
Drizzle Drizzle  
Wind Chill: 11°   Ceiling: 1500
Heat Index: 11°   Visibility: 3mi
Dew Point: 10°   Wind: 3mph
Humidity: 93%   Direction: 360°N
Pressure: 29.98"   Gusts: NA
Location:  43.15°N, 75.97°W
Report Text: KSYR 212354Z 36003KT 3SM -DZ BR FEW010 OVC015 11/10 A2998 RMK SLP138 T01100099 53027
Loading
Personal Weather Stations






























Interactive Weather Map
Tropical Storm Tracking
New forecast layout! Learn more

10-Day Weather Forecast

Advertisements
Track Severe Weather on mobile